Time;durP1;ratioP1;P1;durP2;ratioP2;P2;SDS_P1;SDS_P2;PMS_P1;PMS_P2;Temp;Humidity;BMP_temperature;BMP_pressure;BME280_temperature;BME280_humidity;BME280_pressure;Samples;Min_cycle;Max_cycle;Signal;HPM_P1;HPM_P2
2021/07/27 00:00:56;;;;;;;6.63;5.53;;;18.60;99.90;;;;;;5019913;28;20480;-76
2021/07/27 00:03:29;;;;;;;8.03;5.17;;;18.60;99.90;;;;;;5019667;28;20198;-79
2021/07/27 00:06:40;;;;;;;10.27;5.30;;;18.50;99.90;;;;;;5035457;28;20183;-79
2021/07/27 00:09:46;;;;;;;9.80;4.83;;;18.50;99.90;;;;;;5034990;28;20460;-79
2021/07/27 00:18:56;;;;;;;13.80;6.73;;;18.30;99.90;;;;;;5036794;28;20391;-76
2021/07/27 00:21:59;;;;;;;8.70;5.57;;;18.30;99.90;;;;;;5033138;28;20428;-76
2021/07/27 00:24:26;;;;;;;7.87;5.00;;;18.20;99.90;;;;;;5034636;28;20206;-75
2021/07/27 00:26:59;;;;;;;10.20;5.47;;;18.20;99.90;;;;;;5028642;28;20428;-76
2021/07/27 00:29:52;;;;;;;8.43;5.47;;;18.20;99.90;;;;;;5016886;28;20914;-76
2021/07/27 00:32:23;;;;;;;8.77;5.17;;;18.10;99.90;;;;;;5028728;28;20387;-75
2021/07/27 00:34:59;;;;;;;7.03;5.17;;;18.10;99.90;;;;;;5021988;28;20418;-75
2021/07/27 00:37:28;;;;;;;6.90;4.93;;;18.10;99.90;;;;;;5016391;28;20771;-76
2021/07/27 00:40:00;;;;;;;9.50;5.70;;;18.00;99.90;;;;;;5028151;28;20413;-76
2021/07/27 00:43:01;;;;;;;6.97;4.80;;;18.00;99.90;;;;;;5031883;28;20422;-76
2021/07/27 00:45:47;;;;;;;8.50;5.50;;;18.00;99.90;;;;;;5035175;28;20430;-76
2021/07/27 00:51:34;;;;;;;11.63;5.80;;;18.00;99.90;;;;;;5017240;28;20972;-79
2021/07/27 00:54:00;;;;;;;8.27;5.30;;;17.90;99.90;;;;;;5015970;28;20402;-79
2021/07/27 00:56:59;;;;;;;11.57;5.60;;;17.80;99.90;;;;;;5015919;28;20176;-79
2021/07/27 01:02:46;;;;;;;8.43;5.10;;;17.70;99.90;;;;;;5029641;28;20540;-76
2021/07/27 01:05:13;;;;;;;10.70;6.00;;;17.70;99.90;;;;;;5022387;28;20494;-75
2021/07/27 01:07:39;;;;;;;7.87;4.70;;;17.70;99.90;;;;;;5031045;28;20201;-76
2021/07/27 01:10:07;;;;;;;8.70;5.47;;;17.80;99.90;;;;;;5030697;28;20417;-76
2021/07/27 01:12:33;;;;;;;7.63;5.70;;;17.70;99.90;;;;;;5023323;28;20446;-76
2021/07/27 01:15:00;;;;;;;8.93;5.30;;;17.70;99.90;;;;;;5033798;28;20427;-76
2021/07/27 01:41:05;;;;;;;8.43;5.77;;;17.40;99.90;;;;;;5033956;28;20394;-75
2021/07/27 01:43:34;;;;;;;7.40;5.23;;;17.50;99.90;;;;;;5034075;28;20412;-76
2021/07/27 01:46:00;;;;;;;9.10;5.40;;;17.50;99.90;;;;;;5032222;28;20476;-75
2021/07/27 01:48:36;;;;;;;7.27;4.87;;;17.40;99.90;;;;;;5014928;28;20548;-79
2021/07/27 01:51:11;;;;;;;7.43;5.20;;;17.40;99.90;;;;;;5015045;28;20169;-79
2021/07/27 01:53:48;;;;;;;7.30;5.30;;;17.30;99.90;;;;;;5031943;28;20407;-79
2021/07/27 02:00:08;;;;;;;12.20;5.80;;;17.30;99.90;;;;;;5015067;28;20435;-79
2021/07/27 02:05:56;;;;;;;7.77;5.73;;;17.20;99.90;;;;;;5017821;28;20478;-79
2021/07/27 02:15:06;;;;;;;8.97;5.17;;;17.10;99.90;;;;;;5019418;28;20436;-79
2021/07/27 02:18:10;;;;;;;7.90;5.60;;;17.00;99.90;;;;;;5033115;28;20456;-79
2021/07/27 02:20:37;;;;;;;7.90;5.33;;;17.00;99.90;;;;;;5023383;28;20420;-76
2021/07/27 02:23:06;;;;;;;7.50;5.20;;;16.90;99.90;;;;;;5026461;28;20455;-76
2021/07/27 02:25:32;;;;;;;8.17;4.83;;;16.90;99.90;;;;;;5033842;28;20809;-76
2021/07/27 02:27:59;;;;;;;7.50;5.40;;;16.90;99.90;;;;;;5027716;28;20455;-76
2021/07/27 02:30:25;;;;;;;8.83;5.83;;;;;;;;;;5019079;28;20869;-76
2021/07/27 02:32:53;;;;;;;8.83;5.87;;;16.90;99.90;;;;;;5032482;28;20747;-75
2021/07/27 02:38:48;;;;;;;13.67;5.90;;;16.80;99.90;;;;;;5019177;28;20815;-79
2021/07/27 02:41:34;;;;;;;11.43;6.23;;;16.80;99.90;;;;;;5014141;28;20490;-79
2021/07/27 02:44:46;;;;;;;13.30;6.80;;;16.70;99.90;;;;;;5015159;28;21024;-79
2021/07/27 02:47:24;;;;;;;10.40;6.30;;;16.70;99.90;;;;;;5033064;28;20426;-79
2021/07/27 02:53:12;;;;;;;8.33;5.70;;;16.60;99.90;;;;;;5018152;28;20414;-78
2021/07/27 03:02:24;;;;;;;10.53;6.10;;;16.50;99.90;;;;;;5017020;28;20470;-78
2021/07/27 03:05:17;;;;;;;9.93;5.97;;;16.50;99.90;;;;;;5028640;28;20431;-79
2021/07/27 03:08:10;;;;;;;8.70;6.20;;;16.50;99.90;;;;;;5032196;28;20441;-79
2021/07/27 03:14:16;;;;;;;10.07;6.43;;;16.50;99.90;;;;;;5024443;28;20377;-79
2021/07/27 03:16:47;;;;;;;9.20;6.37;;;16.40;99.90;;;;;;5032620;28;20415;-79
2021/07/27 03:19:13;;;;;;;10.80;6.83;;;16.50;99.90;;;;;;5033004;28;20934;-76
2021/07/27 03:22:04;;;;;;;9.10;6.03;;;16.40;99.90;;;;;;5030470;28;20565;-75
2021/07/27 03:25:05;;;;;;;12.67;6.53;;;16.40;99.90;;;;;;5030097;28;20176;-76
2021/07/27 03:27:36;;;;;;;11.20;6.90;;;16.40;99.90;;;;;;5019159;28;20464;-76
2021/07/27 03:30:06;;;;;;;8.80;6.00;;;16.50;99.90;;;;;;5013908;28;20499;-76
2021/07/27 03:32:41;;;;;;;11.10;6.13;;;16.40;99.90;;;;;;5018519;28;20401;-76
2021/07/27 03:35:07;;;;;;;9.30;6.20;;;16.40;99.90;;;;;;5020565;28;20417;-76
2021/07/27 03:37:34;;;;;;;7.80;6.00;;;16.30;99.90;;;;;;5031262;28;20746;-76
2021/07/27 03:40:12;;;;;;;9.30;5.93;;;16.30;99.90;;;;;;5033069;28;20457;-76
2021/07/27 03:42:47;;;;;;;9.80;6.50;;;16.30;99.90;;;;;;5030474;28;20406;-76
2021/07/27 03:45:23;;;;;;;10.77;5.90;;;16.30;99.90;;;;;;5026633;28;20488;-76
2021/07/27 03:47:49;;;;;;;29.17;6.83;;;16.30;99.90;;;;;;5013540;28;20447;-76
2021/07/27 03:50:23;;;;;;;13.80;6.50;;;16.40;99.90;;;;;;5014681;28;20370;-79
2021/07/27 03:56:12;;;;;;;7.47;5.67;;;16.30;99.90;;;;;;5030859;28;20410;-79
2021/07/27 04:02:00;;;;;;;9.20;6.23;;;16.20;99.90;;;;;;5029718;28;20409;-78
2021/07/27 04:05:01;;;;;;;7.97;6.00;;;16.20;99.90;;;;;;5023292;28;20410;-78
2021/07/27 04:07:41;;;;;;;14.30;6.57;;;16.20;99.90;;;;;;5029258;28;20523;-80
2021/07/27 04:10:11;;;;;;;12.83;6.53;;;16.20;99.90;;;;;;5025265;28;20416;-79
2021/07/27 04:12:37;;;;;;;13.97;5.97;;;16.20;99.90;;;;;;5035507;28;20421;-78
2021/07/27 04:25:09;;;;;;;17.10;6.70;;;16.20;99.90;;;;;;5018486;28;20397;-79
2021/07/27 04:30:57;;;;;;;8.80;5.57;;;16.30;99.90;;;;;;5035736;28;20412;-77
2021/07/27 04:36:44;;;;;;;10.13;6.33;;;16.40;99.90;;;;;;5023523;28;20192;-80
2021/07/27 04:39:52;;;;;;;25.07;6.20;;;16.40;99.90;;;;;;5023011;28;20513;-80
2021/07/27 04:42:23;;;;;;;13.90;6.27;;;16.40;99.90;;;;;;5035961;28;20393;-80
2021/07/27 04:44:53;;;;;;;8.73;6.07;;;16.50;99.90;;;;;;5034445;28;20426;-80
2021/07/27 04:50:44;;;;;;;8.17;5.30;;;16.70;99.90;;;;;;5016315;28;20439;-78
2021/07/27 04:53:10;;;;;;;7.97;5.80;;;16.70;99.90;;;;;;5017027;28;20383;-78
2021/07/27 04:56:11;;;;;;;8.87;6.13;;;16.70;99.90;;;;;;5033258;28;20407;-79
2021/07/27 04:58:53;;;;;;;10.37;6.37;;;;;;;;;;5028150;28;20393;-77
2021/07/27 05:01:40;;;;;;;11.50;5.97;;;16.90;99.90;;;;;;5035117;28;20417;-77
2021/07/27 05:04:30;;;;;;;14.60;5.77;;;17.10;99.90;;;;;;5031199;28;20848;-80
2021/07/27 05:06:59;;;;;;;10.53;7.07;;;17.20;99.90;;;;;;5022422;28;20532;-75
2021/07/27 05:09:29;;;;;;;15.90;6.43;;;17.30;99.90;;;;;;5024073;28;20461;-76
2021/07/27 05:15:17;;;;;;;11.47;7.50;;;;;;;;;;5035254;28;20803;-79
2021/07/27 05:21:58;;;;;;;11.40;7.30;;;17.80;99.90;;;;;;5027621;28;20758;-79
2021/07/27 05:24:26;;;;;;;11.90;7.10;;;18.00;99.90;;;;;;5034679;28;20456;-79
2021/07/27 05:30:15;;;;;;;10.73;6.63;;;18.30;99.90;;;;;;5034628;28;20437;-79
2021/07/27 05:33:11;;;;;;;10.30;6.70;;;18.70;99.90;;;;;;5035159;28;20557;-79
2021/07/27 05:35:47;;;;;;;9.73;6.80;;;18.70;99.90;;;;;;5016780;28;20403;-78
2021/07/27 05:41:36;;;;;;;12.60;6.63;;;19.20;99.90;;;;;;5032014;28;20406;-78
2021/07/27 05:47:24;;;;;;;24.33;7.30;;;;;;;;;;5020146;28;20430;-79
2021/07/27 05:53:12;;;;;;;7.53;5.10;;;20.20;99.90;;;;;;5026448;28;20518;-79
2021/07/27 05:55:38;;;;;;;6.40;5.10;;;20.20;99.90;;;;;;5034120;28;20439;-79
2021/07/27 05:58:17;;;;;;;7.90;4.90;;;20.20;99.90;;;;;;5030424;28;20234;-79
2021/07/27 06:01:22;;;;;;;8.10;4.80;;;20.20;99.90;;;;;;5034050;28;20177;-79
2021/07/27 06:03:48;;;;;;;10.30;5.70;;;;;;;;;;5017533;28;20424;-75
2021/07/27 06:06:14;;;;;;;6.87;4.90;;;20.10;99.90;;;;;;5028825;28;20439;-75
2021/07/27 06:08:40;;;;;;;7.50;5.20;;;;;;;;;;5024799;28;20455;-76
2021/07/27 06:11:07;;;;;;;8.00;5.13;;;20.10;99.90;;;;;;5016173;28;20273;-75
2021/07/27 06:13:32;;;;;;;6.97;5.03;;;20.30;99.90;;;;;;5030872;28;20509;-75
2021/07/27 06:16:02;;;;;;;13.90;5.57;;;20.40;99.90;;;;;;5021751;28;20494;-75
2021/07/27 06:18:29;;;;;;;8.60;6.00;;;20.60;99.90;;;;;;5030531;28;20227;-75
2021/07/27 06:20:54;;;;;;;15.80;6.60;;;20.70;99.90;;;;;;5029886;28;20916;-75
2021/07/27 06:23:20;;;;;;;14.97;6.00;;;20.90;99.90;;;;;;5019809;28;20505;-75
2021/07/27 06:25:46;;;;;;;8.17;5.33;;;21.10;99.90;;;;;;5023503;28;20211;-75
2021/07/27 06:28:11;;;;;;;7.80;5.30;;;21.40;99.90;;;;;;5020717;28;20246;-76
2021/07/27 06:30:37;;;;;;;10.10;5.90;;;21.60;99.90;;;;;;5018335;28;20167;-75
2021/07/27 06:33:03;;;;;;;5.53;4.97;;;21.80;99.90;;;;;;5027974;28;20594;-75
2021/07/27 06:35:34;;;;;;;14.93;5.47;;;21.80;99.90;;;;;;5026530;28;20714;-75
2021/07/27 06:38:17;;;;;;;10.30;5.87;;;22.00;99.90;;;;;;5026517;28;20593;-79
2021/07/27 06:41:23;;;;;;;9.40;5.70;;;22.00;99.90;;;;;;5018915;28;20957;-80
2021/07/27 06:44:16;;;;;;;7.67;5.70;;;22.10;99.90;;;;;;5030295;28;20467;-79
2021/07/27 06:46:42;;;;;;;7.40;5.50;;;22.20;99.90;;;;;;5023090;28;20422;-79
2021/07/27 06:49:29;;;;;;;6.90;5.27;;;22.30;99.90;;;;;;5031114;28;20554;-80
2021/07/27 06:51:54;;;;;;;6.80;4.70;;;22.40;99.90;;;;;;5025151;28;20191;-80
2021/07/27 06:57:42;;;;;;;13.50;5.10;;;22.50;99.90;;;;;;5033478;28;20184;-79
2021/07/27 07:03:29;;;;;;;7.97;5.47;;;22.40;99.90;;;;;;5013261;28;20238;-80
2021/07/27 07:05:55;;;;;;;8.07;4.93;;;22.40;99.90;;;;;;5014220;28;20709;-79
2021/07/27 07:08:22;;;;;;;7.07;4.70;;;22.40;99.90;;;;;;5012957;28;21001;-80
2021/07/27 07:10:54;;;;;;;7.70;4.77;;;22.30;99.90;;;;;;5016402;28;20445;-80
2021/07/27 07:13:20;;;;;;;8.90;5.60;;;22.30;99.90;;;;;;5032342;28;20422;-80
2021/07/27 07:15:45;;;;;;;6.80;5.40;;;22.40;99.90;;;;;;5023093;28;20416;-80
2021/07/27 07:18:11;;;;;;;10.53;5.37;;;;;;;;;;5013999;28;20735;-80
2021/07/27 07:20:37;;;;;;;13.03;5.53;;;22.40;99.90;;;;;;5013372;28;20169;-80
2021/07/27 07:23:03;;;;;;;7.80;5.10;;;22.50;99.90;;;;;;5032702;28;20469;-76
2021/07/27 07:25:28;;;;;;;5.83;4.60;;;22.40;99.90;;;;;;5030491;28;20180;-76
2021/07/27 07:27:54;;;;;;;9.90;5.03;;;22.70;99.90;;;;;;5028722;28;20196;-76
2021/07/27 07:30:20;;;;;;;15.23;5.20;;;22.90;99.90;;;;;;5021552;28;20685;-76
2021/07/27 07:32:46;;;;;;;6.50;4.40;;;23.10;99.90;;;;;;5030308;28;20423;-75
2021/07/27 07:35:12;;;;;;;9.50;5.23;;;23.20;99.90;;;;;;5019899;28;20181;-76
2021/07/27 07:37:37;;;;;;;6.87;5.13;;;23.30;99.90;;;;;;5014101;28;20190;-80
2021/07/27 07:40:03;;;;;;;10.30;5.67;;;23.40;99.90;;;;;;5012494;28;20484;-80
2021/07/27 07:42:29;;;;;;;6.10;4.90;;;23.40;99.90;;;;;;5017107;28;20196;-80
2021/07/27 07:44:54;;;;;;;5.77;5.07;;;23.50;99.90;;;;;;5027981;28;20443;-80
2021/07/27 07:47:20;;;;;;;17.33;5.20;;;23.50;99.90;;;;;;5033920;28;20188;-80
2021/07/27 07:49:46;;;;;;;8.10;5.40;;;23.60;99.90;;;;;;5032379;28;20173;-80
2021/07/27 07:52:11;;;;;;;6.90;4.97;;;23.80;99.90;;;;;;5034678;28;20237;-76
2021/07/27 07:54:38;;;;;;;8.10;4.87;;;23.80;99.90;;;;;;5035878;28;20634;-76
2021/07/27 07:57:04;;;;;;;6.00;4.90;;;23.90;99.90;;;;;;5036067;28;20162;-76
2021/07/27 07:59:29;;;;;;;5.73;5.20;;;24.00;99.90;;;;;;5035460;28;20398;-76
2021/07/27 08:01:58;;;;;;;10.00;5.77;;;23.90;99.90;;;;;;5035984;28;20210;-76
2021/07/27 08:04:24;;;;;;;7.80;5.30;;;23.80;99.90;;;;;;5036028;28;20159;-76
2021/07/27 08:06:51;;;;;;;6.73;4.93;;;23.80;99.90;;;;;;5035032;28;21001;-76
2021/07/27 08:09:16;;;;;;;10.47;5.30;;;24.00;99.90;;;;;;5034510;28;20838;-76
2021/07/27 08:11:42;;;;;;;10.40;6.20;;;24.00;99.90;;;;;;5017262;28;20426;-76
2021/07/27 08:14:07;;;;;;;7.43;5.53;;;23.90;99.90;;;;;;5025669;28;20176;-76
2021/07/27 08:16:33;;;;;;;7.13;5.40;;;24.10;99.90;;;;;;5031466;28;20275;-76
2021/07/27 08:19:00;;;;;;;6.80;5.23;;;24.10;99.90;;;;;;5017379;28;20175;-76
2021/07/27 08:21:27;;;;;;;10.97;6.40;;;24.20;99.90;;;;;;5015985;28;20190;-79
2021/07/27 08:23:52;;;;;;;16.90;5.73;;;24.30;99.90;;;;;;5030068;28;20437;-76
2021/07/27 08:26:18;;;;;;;8.07;5.10;;;24.30;99.90;;;;;;5016818;28;20422;-76
2021/07/27 08:28:46;;;;;;;8.13;5.43;;;24.50;99.90;;;;;;5015289;28;20235;-76
2021/07/27 08:31:15;;;;;;;14.37;6.17;;;24.50;99.90;;;;;;5024174;28;20414;-75
2021/07/27 08:33:41;;;;;;;10.43;5.80;;;24.70;99.90;;;;;;5030327;28;20467;-75
2021/07/27 08:36:08;;;;;;;6.00;5.00;;;;;;;;;;5023199;28;20528;-75
2021/07/27 08:38:35;;;;;;;10.23;5.97;;;24.90;99.90;;;;;;5028973;28;20445;-75
2021/07/27 08:41:07;;;;;;;7.50;4.90;;;25.00;99.90;;;;;;5028383;28;20456;-75
2021/07/27 08:43:33;;;;;;;5.30;4.80;;;25.10;99.90;;;;;;5031469;28;20481;-75
2021/07/27 08:46:00;;;;;;;6.40;5.30;;;25.10;99.90;;;;;;5036298;28;20404;-75
2021/07/27 08:48:26;;;;;;;9.27;5.33;;;25.40;99.90;;;;;;5031166;28;20752;-75
2021/07/27 08:51:35;;;;;;;9.50;5.17;;;25.50;99.90;;;;;;5035411;28;20433;-79
2021/07/27 09:00:45;;;;;;;10.67;4.97;;;25.80;99.90;;;;;;5029511;28;20451;-78
2021/07/27 09:03:13;;;;;;;8.70;5.40;;;25.80;99.90;;;;;;5024924;28;20418;-77
2021/07/27 09:05:39;;;;;;;6.67;4.87;;;25.90;99.90;;;;;;5017173;28;20794;-77
2021/07/27 09:11:27;;;;;;;7.77;5.60;;;25.70;99.90;;;;;;5020332;28;20447;-77
2021/07/27 09:13:56;;;;;;;7.80;5.70;;;25.80;99.90;;;;;;5033882;28;20522;-78
2021/07/27 09:16:29;;;;;;;7.57;5.60;;;26.00;99.90;;;;;;5019350;28;20583;-77
2021/07/27 09:19:05;;;;;;;12.60;5.67;;;26.20;99.90;;;;;;5035365;28;20395;-77
2021/07/27 09:21:35;;;;;;;11.77;5.70;;;26.50;99.90;;;;;;5015740;28;20910;-79
2021/07/27 09:27:29;;;;;;;19.47;7.73;;;26.40;99.90;;;;;;5016517;28;20426;-81
2021/07/27 09:29:54;;;;;;;13.60;5.53;;;26.30;99.90;;;;;;5031032;28;20445;-81
2021/07/27 09:35:44;;;;;;;11.10;6.20;;;26.10;99.90;;;;;;5034914;28;20164;-81
2021/07/27 09:38:16;;;;;;;15.00;6.43;;;26.10;99.90;;;;;;5035167;28;20438;-77
2021/07/27 09:40:55;;;;;;;14.17;6.27;;;26.10;99.90;;;;;;5030718;28;20882;-77
2021/07/27 09:43:25;;;;;;;10.17;6.43;;;26.00;99.90;;;;;;5021073;28;20434;-78
2021/07/27 09:46:40;;;;;;;8.47;6.27;;;26.00;99.90;;;;;;5033170;28;20448;-77
2021/07/27 09:49:47;;;;;;;8.93;6.27;;;26.20;99.90;;;;;;5016974;28;20479;-79
2021/07/27 09:52:35;;;;;;;14.27;6.83;;;26.20;99.90;;;;;;5026221;28;20444;-77
2021/07/27 09:55:06;;;;;;;11.20;6.20;;;26.20;99.90;;;;;;5029773;28;20435;-77
2021/07/27 09:57:53;;;;;;;14.60;6.30;;;26.20;99.90;;;;;;5033445;28;20429;-78
2021/07/27 10:00:42;;;;;;;11.30;6.13;;;26.20;99.90;;;;;;5032065;28;20905;-78
2021/07/27 10:03:12;;;;;;;11.63;5.47;;;26.30;99.90;;;;;;5032594;28;20455;-78
2021/07/27 10:05:38;;;;;;;722.17;32.33;;;26.40;99.90;;;;;;5025251;28;20410;-77
2021/07/27 10:08:05;;;;;;;19.23;6.43;;;26.50;99.90;;;;;;5014392;28;20545;-82
2021/07/27 10:10:38;;;;;;;15.43;6.20;;;26.70;99.90;;;;;;5014295;28;20472;-82
2021/07/27 10:13:14;;;;;;;15.70;6.13;;;26.60;99.90;;;;;;5014219;28;20443;-83
2021/07/27 10:19:40;;;;;;;7.33;5.83;;;26.70;99.90;;;;;;5014892;28;20439;-83
2021/07/27 10:22:31;;;;;;;11.67;4.97;;;27.30;99.90;;;;;;5033296;28;21000;-83
2021/07/27 10:24:57;;;;;;;7.50;5.63;;;27.40;99.90;;;;;;5029234;28;20433;-81
2021/07/27 10:37:36;;;;;;;7.47;5.70;;;27.60;99.90;;;;;;5034090;28;20885;-81
2021/07/27 10:40:02;;;;;;;6.93;5.73;;;27.50;99.90;;;;;;5032882;28;20461;-76
2021/07/27 10:42:38;;;;;;;7.50;5.87;;;27.30;99.90;;;;;;5033106;28;20872;-75
2021/07/27 10:45:16;;;;;;;6.63;5.80;;;27.40;99.90;;;;;;5031569;28;20182;-75
2021/07/27 10:47:49;;;;;;;8.10;5.73;;;27.50;99.90;;;;;;5032657;28;20475;-76
2021/07/27 10:50:15;;;;;;;9.40;6.53;;;27.30;99.90;;;;;;5030496;28;20510;-75
2021/07/27 10:52:43;;;;;;;6.27;5.20;;;25.00;99.90;;;;;;5032989;28;20801;-75
2021/07/27 10:55:10;;;;;;;6.33;5.70;;;27.20;99.90;;;;;;5022039;28;20185;-75
2021/07/27 10:57:47;;;;;;;16.63;5.93;;;27.20;99.90;;;;;;5019610;28;20509;-76
2021/07/27 11:00:13;;;;;;;6.53;5.70;;;27.20;99.90;;;;;;5013533;28;20452;-76
2021/07/27 11:02:39;;;;;;;7.50;6.27;;;27.30;99.90;;;;;;5020061;28;20443;-75
2021/07/27 11:05:06;;;;;;;9.83;5.70;;;27.30;99.90;;;;;;5031019;28;20457;-76
2021/07/27 11:07:34;;;;;;;9.30;5.90;;;27.50;99.90;;;;;;5030962;28;20184;-76
2021/07/27 11:10:00;;;;;;;8.30;5.70;;;27.60;99.90;;;;;;5013256;28;20430;-81
2021/07/27 11:12:39;;;;;;;6.90;5.73;;;27.80;99.90;;;;;;5013036;28;20463;-81
2021/07/27 11:15:08;;;;;;;7.10;5.53;;;27.70;99.90;;;;;;5026036;28;20411;-81
2021/07/27 11:17:35;;;;;;;7.17;5.87;;;27.80;99.90;;;;;;5032526;28;20390;-80
2021/07/27 11:20:02;;;;;;;8.37;6.43;;;27.70;99.90;;;;;;5033237;28;20917;-81
2021/07/27 11:22:28;;;;;;;8.40;5.80;;;27.50;99.90;;;;;;5036767;28;20875;-81
2021/07/27 11:24:55;;;;;;;7.80;5.83;;;27.60;99.90;;;;;;5036372;28;20422;-81
2021/07/27 11:31:31;;;;;;;7.83;5.80;;;27.90;99.90;;;;;;5022799;28;20842;-81
2021/07/27 11:37:27;;;;;;;11.10;5.40;;;28.30;99.90;;;;;;4956795;28;20419;-81
2021/07/27 11:39:53;;;;;;;7.67;5.63;;;28.40;99.90;;;;;;4969342;28;20511;-75
2021/07/27 11:42:33;;;;;;;10.30;5.93;;;28.50;99.90;;;;;;4943315;28;20431;-75
2021/07/27 11:45:04;;;;;;;6.70;5.30;;;28.70;99.90;;;;;;4969627;28;20447;-75
2021/07/27 11:47:43;;;;;;;7.90;5.70;;;28.40;99.90;;;;;;4967549;28;20433;-76
2021/07/27 11:50:13;;;;;;;6.17;5.40;;;28.60;99.90;;;;;;4960045;28;20982;-75
2021/07/27 11:52:41;;;;;;;9.67;6.03;;;28.60;99.90;;;;;;4974047;28;20531;-75
2021/07/27 11:55:07;;;;;;;7.10;5.63;;;28.50;99.90;;;;;;4961537;28;20936;-75
2021/07/27 11:57:35;;;;;;;7.60;5.80;;;28.60;99.90;;;;;;4968607;28;20534;-75
2021/07/27 12:00:08;;;;;;;9.97;6.00;;;28.90;99.90;;;;;;4967760;28;20507;-75
2021/07/27 12:02:34;;;;;;;10.10;5.67;;;28.90;99.90;;;;;;4971792;28;20435;-75
2021/07/27 12:05:32;;;;;;;7.83;6.07;;;29.30;99.90;;;;;;4975292;28;20595;-75
2021/07/27 12:07:58;;;;;;;8.53;5.90;;;29.40;99.90;;;;;;4964080;28;20221;-77
2021/07/27 12:14:23;;;;;;;6.57;5.50;;;29.20;99.30;;;;;;5030355;28;20451;-82
2021/07/27 12:23:59;;;;;;;23.27;5.83;;;29.70;99.90;;;;;;5016423;28;20414;-82
2021/07/27 12:29:47;;;;;;;9.07;5.40;;;;;;;;;;5016332;28;20512;-83
2021/07/27 12:32:17;;;;;;;9.40;5.87;;;29.60;97.90;;;;;;5015533;28;20411;-82
2021/07/27 12:35:11;;;;;;;6.80;5.57;;;29.70;98.70;;;;;;5029903;28;20415;-82
2021/07/27 12:37:37;;;;;;;8.97;5.73;;;29.70;96.70;;;;;;5025255;28;20521;-82
2021/07/27 12:40:17;;;;;;;9.13;5.60;;;29.70;96.80;;;;;;5015323;28;20434;-82
2021/07/27 12:46:05;;;;;;;8.10;5.70;;;30.20;96.10;;;;;;5035764;28;20395;-82
2021/07/27 12:51:52;;;;;;;9.43;5.70;;;30.30;93.50;;;;;;5022102;28;20397;-83
2021/07/27 12:57:41;;;;;;;8.70;5.30;;;29.80;97.20;;;;;;5031970;28;20226;-82
2021/07/27 13:03:32;;;;;;;8.10;5.80;;;29.80;96.60;;;;;;5035285;28;20496;-82
2021/07/27 13:09:22;;;;;;;5.90;5.10;;;30.00;95.80;;;;;;5019646;28;20222;-78
2021/07/27 13:11:59;;;;;;;7.90;6.10;;;29.60;94.40;;;;;;5033638;28;20539;-76
2021/07/27 13:14:59;;;;;;;8.40;5.83;;;29.60;95.70;;;;;;5029759;28;20429;-76
2021/07/27 13:17:53;;;;;;;5.50;4.90;;;29.70;95.70;;;;;;5033591;28;20460;-76
2021/07/27 13:20:41;;;;;;;8.77;5.43;;;29.80;96.00;;;;;;5016933;28;20414;-77
2021/07/27 13:23:06;;;;;;;7.77;5.60;;;29.70;95.70;;;;;;5034886;28;20472;-77
2021/07/27 13:25:47;;;;;;;6.47;5.10;;;29.60;97.30;;;;;;5035772;28;20391;-76
2021/07/27 13:28:29;;;;;;;8.47;5.20;;;29.90;95.80;;;;;;5015333;28;20212;-77
2021/07/27 13:31:11;;;;;;;5.70;5.03;;;29.80;95.70;;;;;;5015553;28;20403;-77
2021/07/27 13:33:59;;;;;;;5.30;4.53;;;30.00;95.80;;;;;;5025097;28;20502;-77
2021/07/27 13:36:24;;;;;;;5.70;5.10;;;30.30;95.10;;;;;;5027715;28;20461;-76
2021/07/27 13:39:05;;;;;;;5.90;5.30;;;30.10;93.60;;;;;;5035961;28;20530;-76
2021/07/27 13:41:35;;;;;;;7.87;5.00;;;29.90;94.20;;;;;;5017266;28;20184;-76
2021/07/27 13:44:17;;;;;;;8.90;5.70;;;29.60;95.70;;;;;;5014201;28;20743;-76
2021/07/27 13:46:43;;;;;;;8.20;5.83;;;29.60;95.40;;;;;;5016469;28;20421;-76
2021/07/27 13:49:09;;;;;;;7.17;5.07;;;29.50;94.60;;;;;;5023177;28;21018;-76
2021/07/27 13:51:53;;;;;;;7.20;5.03;;;29.30;95.60;;;;;;5030138;28;20687;-77
2021/07/27 13:54:18;;;;;;;6.87;4.97;;;29.50;95.60;;;;;;5022291;28;20451;-77
2021/07/27 13:57:00;;;;;;;7.90;5.77;;;29.40;96.30;;;;;;5033539;28;20432;-77
2021/07/27 13:59:30;;;;;;;19.17;5.20;;;29.40;96.40;;;;;;5035101;28;20191;-77
2021/07/27 14:02:23;;;;;;;9.63;5.30;;;29.40;96.50;;;;;;5034714;28;20401;-76
2021/07/27 14:04:59;;;;;;;8.93;4.90;;;29.10;93.60;;;;;;5030915;28;20434;-76
2021/07/27 14:08:04;;;;;;;9.77;5.33;;;29.00;94.70;;;;;;5024004;28;20425;-77
2021/07/27 14:17:14;;;;;;;8.97;6.57;;;28.80;94.50;;;;;;5030734;28;20758;-81
2021/07/27 14:26:23;;;;;;;12.50;5.50;;;29.00;93.10;;;;;;5014427;28;20430;-76
2021/07/27 14:29:23;;;;;;;5.20;4.70;;;29.00;94.40;;;;;;5015301;28;20463;-76
2021/07/27 14:31:53;;;;;;;7.63;4.87;;;29.30;93.00;;;;;;5023289;28;20499;-76
2021/07/27 14:34:41;;;;;;;6.80;5.03;;;29.50;92.60;;;;;;5034060;28;20398;-77
2021/07/27 14:37:23;;;;;;;8.53;5.03;;;30.20;92.70;;;;;;5034019;28;20414;-76
2021/07/27 14:40:30;;;;;;;8.23;5.03;;;30.20;93.10;;;;;;5017500;28;20915;-82
2021/07/27 14:43:11;;;;;;;11.03;5.10;;;30.70;91.90;;;;;;5014228;28;20385;-76
2021/07/27 14:45:41;;;;;;;15.10;5.30;;;31.00;88.30;;;;;;5033169;28;20889;-76
2021/07/27 14:48:13;;;;;;;6.70;5.43;;;31.00;89.00;;;;;;5028937;28;20446;-76
2021/07/27 14:50:41;;;;;;;7.10;4.70;;;30.50;86.40;;;;;;5014348;28;20530;-76
2021/07/27 14:53:07;;;;;;;6.07;5.30;;;30.50;88.00;;;;;;5015455;28;20912;-77
2021/07/27 14:55:53;;;;;;;5.10;4.57;;;30.10;90.30;;;;;;5026081;28;20753;-77
2021/07/27 14:58:53;;;;;;;5.30;4.80;;;30.20;91.00;;;;;;5032188;28;20415;-76
2021/07/27 15:01:19;;;;;;;15.37;5.63;;;30.20;90.50;;;;;;5033923;28;20742;-76
2021/07/27 15:03:44;;;;;;;9.23;5.20;;;30.00;90.30;;;;;;5033937;28;20395;-76
2021/07/27 15:06:10;;;;;;;8.93;5.40;;;29.60;86.70;;;;;;5033373;28;20184;-79
2021/07/27 15:08:36;;;;;;;8.87;5.73;;;29.10;90.30;;;;;;5028689;28;20218;-72
2021/07/27 15:11:02;;;;;;;8.50;5.43;;;29.10;92.30;;;;;;5024810;28;20207;-76
2021/07/27 15:13:35;;;;;;;6.47;5.10;;;29.00;91.50;;;;;;5029891;28;20193;-74
2021/07/27 15:19:35;;;;;;;6.80;5.40;;;29.00;92.30;;;;;;5025423;28;20408;-81
2021/07/27 15:25:23;;;;;;;12.80;6.23;;;28.40;93.50;;;;;;5013637;28;20415;-82
2021/07/27 15:28:35;;;;;;;7.70;5.40;;;27.90;94.20;;;;;;5014063;28;20404;-79
2021/07/27 15:31:29;;;;;;;6.90;5.87;;;27.90;94.70;;;;;;5013425;28;20231;-79
2021/07/27 15:37:16;;;;;;;8.80;6.13;;;27.50;95.90;;;;;;5013631;28;20478;-80
2021/07/27 15:39:42;;;;;;;6.80;5.60;;;27.50;98.00;;;;;;5012453;28;20440;-79
2021/07/27 15:45:41;;;;;;;12.80;5.77;;;27.10;98.00;;;;;;5013530;28;20235;-76
2021/07/27 15:51:47;;;;;;;10.30;4.70;;;26.40;99.90;;;;;;5013240;28;20400;-79
2021/07/27 15:57:59;;;;;;;6.93;3.80;;;25.80;99.90;;;;;;5033366;28;20415;-78
2021/07/27 16:00:43;;;;;;;4.23;3.73;;;24.90;99.90;;;;;;5033301;28;20390;-77
2021/07/27 16:03:29;;;;;;;6.30;4.63;;;24.50;99.90;;;;;;5013556;28;20388;-77
2021/07/27 16:06:32;;;;;;;16.97;4.70;;;24.50;99.90;;;;;;5013453;28;20449;-77
2021/07/27 16:12:19;;;;;;;5.50;4.50;;;24.20;99.90;;;;;;5017030;28;20589;-77
2021/07/27 16:15:05;;;;;;;9.13;4.60;;;24.30;99.90;;;;;;5021911;28;21304;-77
2021/07/27 16:17:35;;;;;;;5.50;4.10;;;24.20;99.90;;;;;;5030854;28;20226;-87
2021/07/27 16:23:23;;;;;;;6.43;4.97;;;24.30;99.90;;;;;;5025833;28;20439;-84
2021/07/27 16:29:23;;;;;;;4.67;3.77;;;24.30;99.90;;;;;;5036870;28;20683;-84
2021/07/27 16:31:59;;;;;;;5.60;4.20;;;24.30;99.90;;;;;;5018280;28;20922;-83
2021/07/27 16:34:25;;;;;;;6.80;4.93;;;24.40;99.90;;;;;;5016804;28;20398;-85
2021/07/27 16:37:06;;;;;;;5.20;4.03;;;24.40;99.90;;;;;;5015556;28;20407;-86
2021/07/27 16:39:38;;;;;;;8.70;4.73;;;24.40;99.90;;;;;;5019084;28;20235;-85
2021/07/27 16:42:23;;;;;;;7.83;4.30;;;24.60;99.90;;;;;;5035462;28;20459;-85
2021/07/27 16:44:49;;;;;;;5.63;3.73;;;24.70;99.90;;;;;;5035214;28;20425;-86
2021/07/27 16:47:17;;;;;;;5.77;3.80;;;24.80;99.90;;;;;;5036681;28;20429;-86
2021/07/27 16:49:47;;;;;;;8.10;4.73;;;24.90;99.90;;;;;;5036537;28;20191;-86
2021/07/27 16:52:32;;;;;;;5.27;4.00;;;25.00;99.90;;;;;;5035166;28;20494;-86
2021/07/27 16:54:58;;;;;;;6.40;4.50;;;25.00;99.90;;;;;;5035146;28;20476;-85
2021/07/27 16:57:35;;;;;;;5.10;4.00;;;;;;;;;;5036266;28;20442;-85
2021/07/27 17:00:01;;;;;;;4.63;4.03;;;24.90;99.90;;;;;;5029443;28;20172;-86
2021/07/27 17:02:27;;;;;;;10.00;4.43;;;24.90;99.90;;;;;;5026088;28;20442;-86
2021/07/27 17:04:54;;;;;;;7.83;4.30;;;24.90;99.90;;;;;;5019900;28;20447;-86
2021/07/27 17:07:22;;;;;;;8.97;4.33;;;24.80;99.90;;;;;;5023877;28;20493;-85
2021/07/27 17:10:40;;;;;;;10.90;4.60;;;24.80;99.90;;;;;;5029739;28;20441;-86
2021/07/27 17:16:27;;;;;;;6.23;4.07;;;24.80;99.90;;;;;;5016043;28;20474;-85
2021/07/27 17:18:53;;;;;;;5.10;4.60;;;24.80;99.90;;;;;;5015859;28;20413;-86
2021/07/27 17:28:03;;;;;;;6.50;4.67;;;24.70;99.90;;;;;;5035324;28;20445;-85